Terminal Aerodrome Forecast
Issued by NWS

Home | Current Version | Previous Version | Text Only | Print | Product List | Glossary On
Versions: 1 2 3 4 5 6 7 8 9 10 11 12 13 14 15 16 17 18 19 20 21
000
FTUS43 KAPX 271120
TAFPLN
TAF
KPLN 271120Z 2712/2812 00000KT 4SM -DZ BR SCT015 OVC025
     FM271400 15004KT 1 1/2SM -RA BR OVC015
     FM272100 25009G16KT 4SM BR VCSH OVC018
     FM280000 30012G19KT P6SM BKN028
     FM280400 30009KT P6SM BKN035=

USA.gov is the U.S. government's official web portal to all federal, state and local government web resources and services.